Labuan, Malaysia
Current Conditions -  °F | °C
As of 7:00 PM on Saturday 20 Dec 2014 (Local Time) from WBKL Reporting Station
Broken Clouds Broken Clouds  
Wind Chill: 82°   Ceiling: 13000
Heat Index: 91°   Visibility: 6mi
Dew Point: 77°   Wind: 1mph
Humidity: 84%   Direction: 170°S
Pressure: 29.74"   Gusts: NA
Location:  5.29°N, 115.24°E
Report Text: WBKL 201100Z 17001KT 9999 FEW010 BKN130 BKN280 28/25 Q1007
Loading
Personal Weather Stations






























Interactive Weather Map New forecast layout! Learn more

10-Day Weather Forecast

Advertisements
Track Severe Weather on mobile